createdAt,value
2022-12-26T00:01:46.634Z,9.90
2022-12-26T00:04:51.869Z,9.80
2022-12-26T00:07:40.847Z,9.80
2022-12-26T00:10:28.513Z,9.80
2022-12-26T00:13:38.798Z,9.90
2022-12-26T00:16:25.014Z,9.60
2022-12-26T00:19:14.118Z,9.80
2022-12-26T00:22:01.932Z,9.70
2022-12-26T00:24:49.490Z,9.80
2022-12-26T00:27:36.983Z,9.90
2022-12-26T00:30:25.906Z,9.90
2022-12-26T00:33:13.651Z,10.00
2022-12-26T00:36:11.027Z,9.90
2022-12-26T00:39:01.844Z,9.90
2022-12-26T00:41:49.467Z,10.10
2022-12-26T00:44:37.149Z,10.10
2022-12-26T00:47:25.093Z,10.10
2022-12-26T00:50:15.778Z,10.20
2022-12-26T00:53:03.959Z,10.10
2022-12-26T00:55:53.019Z,10.30
2022-12-26T00:58:42.316Z,10.30
2022-12-26T01:01:31.347Z,10.30
2022-12-26T01:04:19.351Z,10.40
2022-12-26T01:07:06.940Z,10.40
2022-12-26T01:09:54.641Z,10.40
2022-12-26T01:12:42.497Z,10.40
2022-12-26T01:15:30.055Z,10.40
2022-12-26T01:18:18.117Z,10.30
2022-12-26T01:21:11.623Z,10.30
2022-12-26T01:23:59.600Z,10.30
2022-12-26T01:26:47.352Z,10.30
2022-12-26T01:29:35.188Z,10.40
2022-12-26T01:32:23.733Z,10.30
2022-12-26T01:35:11.384Z,10.30
2022-12-26T01:37:59.249Z,10.40
2022-12-26T01:40:47.245Z,10.10
2022-12-26T01:43:49.917Z,10.20
2022-12-26T01:46:44.793Z,10.10
2022-12-26T01:49:51.023Z,10.00
2022-12-26T01:52:47.093Z,9.90
2022-12-26T01:55:34.819Z,9.90
2022-12-26T01:58:34.256Z,10.00
2022-12-26T02:01:27.713Z,9.70
2022-12-26T02:04:45.259Z,9.80
2022-12-26T02:07:36.403Z,9.70
2022-12-26T02:10:26.925Z,9.90
2022-12-26T02:13:15.757Z,9.70
2022-12-26T02:16:07.457Z,9.70
2022-12-26T02:18:55.310Z,9.70
2022-12-26T02:22:24.555Z,9.80
2022-12-26T02:26:17.372Z,9.80
2022-12-26T02:29:16.836Z,9.70
2022-12-26T02:32:50.709Z,9.80
2022-12-26T02:35:48.520Z,9.70
2022-12-26T02:39:45.106Z,9.70
2022-12-26T02:42:36.065Z,9.70
2022-12-26T02:46:02.694Z,9.60
2022-12-26T02:49:11.213Z,9.50
2022-12-26T02:52:38.124Z,9.60
2022-12-26T02:55:47.922Z,9.80
2022-12-26T02:59:19.991Z,9.70
2022-12-26T03:03:19.884Z,9.60
2022-12-26T03:06:36.389Z,9.60
2022-12-26T03:09:52.346Z,9.20
2022-12-26T03:13:14.630Z,9.10
2022-12-26T03:16:29.473Z,9.30
2022-12-26T03:19:19.219Z,9.30
2022-12-26T03:22:29.220Z,9.40
2022-12-26T03:26:04.372Z,9.40
2022-12-26T03:28:52.157Z,9.40
2022-12-26T03:31:39.665Z,9.40
2022-12-26T03:34:28.711Z,9.40
2022-12-26T03:37:57.941Z,9.50
2022-12-26T03:41:19.256Z,9.50
2022-12-26T03:44:46.220Z,9.50
2022-12-26T03:48:31.687Z,9.70
2022-12-26T03:51:52.473Z,9.70
2022-12-26T03:55:38.526Z,9.70
2022-12-26T03:58:56.784Z,9.60
2022-12-26T04:02:07.828Z,9.60
2022-12-26T04:05:18.988Z,9.70
2022-12-26T04:08:40.797Z,9.70
2022-12-26T04:11:47.870Z,9.70
2022-12-26T04:15:13.020Z,9.80
2022-12-26T04:18:34.304Z,9.70
2022-12-26T04:22:08.360Z,9.80
2022-12-26T04:25:48.764Z,9.60
2022-12-26T04:28:57.431Z,9.50
2022-12-26T04:32:18.405Z,9.50
2022-12-26T04:35:39.370Z,9.50
2022-12-26T04:38:54.473Z,9.50
2022-12-26T04:42:02.781Z,9.50
2022-12-26T04:44:51.128Z,9.60
2022-12-26T04:47:58.861Z,9.50
2022-12-26T04:50:53.763Z,9.70
2022-12-26T04:53:41.369Z,9.50
2022-12-26T04:56:29.085Z,9.60
2022-12-26T04:59:18.149Z,9.50
2022-12-26T05:02:24.363Z,9.50
2022-12-26T05:05:30.495Z,9.50
2022-12-26T05:08:55.431Z,9.80
2022-12-26T05:11:47.337Z,9.60
2022-12-26T05:14:36.563Z,9.50
2022-12-26T05:17:43.160Z,9.50
2022-12-26T05:20:49.813Z,9.60
2022-12-26T05:23:56.786Z,9.80
2022-12-26T05:27:03.408Z,9.80
2022-12-26T05:29:51.441Z,9.80
2022-12-26T05:32:57.740Z,9.70
2022-12-26T05:35:45.489Z,9.70
2022-12-26T05:38:33.200Z,9.70
2022-12-26T05:41:20.969Z,9.90
2022-12-26T05:44:09.973Z,9.70
2022-12-26T05:46:58.010Z,9.60
2022-12-26T05:49:45.571Z,9.70
2022-12-26T05:52:33.229Z,9.70
2022-12-26T05:55:20.928Z,9.50
2022-12-26T05:58:08.515Z,9.50
2022-12-26T06:01:07.071Z,9.50
2022-12-26T06:03:58.010Z,9.50
2022-12-26T06:06:45.915Z,9.60
2022-12-26T06:09:33.666Z,9.60
2022-12-26T06:12:21.263Z,9.70
2022-12-26T06:15:10.315Z,9.60
2022-12-26T06:17:58.173Z,9.80
2022-12-26T06:20:45.811Z,9.70
2022-12-26T06:23:35.099Z,9.70
2022-12-26T06:26:22.799Z,9.50
2022-12-26T06:29:10.677Z,9.60
2022-12-26T06:31:58.302Z,9.80
2022-12-26T06:34:48.045Z,9.80
2022-12-26T06:37:35.630Z,9.80
2022-12-26T06:40:23.286Z,9.80
2022-12-26T06:43:14.006Z,9.60
2022-12-26T06:46:07.502Z,9.80
2022-12-26T06:48:55.325Z,9.80
2022-12-26T06:51:45.197Z,9.80
2022-12-26T06:54:33.381Z,9.70
2022-12-26T06:57:21.075Z,9.80
2022-12-26T07:00:10.166Z,9.80
2022-12-26T07:02:57.873Z,9.80
2022-12-26T07:05:45.767Z,9.80
2022-12-26T07:08:34.545Z,9.90
2022-12-26T07:11:26.157Z,9.90
2022-12-26T07:14:14.788Z,9.90
2022-12-26T07:17:02.643Z,9.70
2022-12-26T07:19:50.249Z,9.80
2022-12-26T07:22:40.782Z,10.00
2022-12-26T07:25:28.364Z,10.00
2022-12-26T07:28:17.011Z,10.00
2022-12-26T07:31:05.651Z,10.10
2022-12-26T07:33:56.257Z,10.00
2022-12-26T07:36:43.920Z,10.10
2022-12-26T07:39:31.836Z,10.40
2022-12-26T07:42:21.722Z,10.20
2022-12-26T07:45:10.175Z,10.30
2022-12-26T07:47:59.663Z,10.40
2022-12-26T07:50:49.550Z,10.40
2022-12-26T07:53:37.628Z,10.40
2022-12-26T07:56:25.441Z,10.50
2022-12-26T07:59:18.310Z,10.50
2022-12-26T08:02:06.344Z,10.40
2022-12-26T08:04:54.263Z,10.50
2022-12-26T08:07:42.430Z,10.60
2022-12-26T08:10:30.087Z,10.30
2022-12-26T08:13:18.211Z,10.30
2022-12-26T08:16:08.914Z,10.40
2022-12-26T08:18:56.627Z,10.50
2022-12-26T08:21:44.263Z,10.60
2022-12-26T08:24:31.916Z,10.40
2022-12-26T08:27:19.635Z,10.30
2022-12-26T08:30:08.605Z,10.50
2022-12-26T08:32:56.300Z,10.70
2022-12-26T08:35:44.237Z,10.80
2022-12-26T08:38:33.746Z,10.80
2022-12-26T08:41:21.736Z,10.80
2022-12-26T08:44:27.485Z,10.90
2022-12-26T08:47:16.394Z,11.00
2022-12-26T08:50:04.316Z,11.30
2022-12-26T08:52:51.911Z,11.30
2022-12-26T08:55:42.647Z,11.40
2022-12-26T08:58:31.113Z,11.50
2022-12-26T09:01:26.151Z,11.20
2022-12-26T09:04:14.855Z,11.40
2022-12-26T09:07:02.467Z,11.30
2022-12-26T09:09:50.139Z,11.20
2022-12-26T09:12:37.635Z,11.00
2022-12-26T09:15:25.337Z,11.10
2022-12-26T09:18:12.815Z,11.20
2022-12-26T09:21:02.721Z,11.10
2022-12-26T09:23:50.940Z,11.30
2022-12-26T09:26:41.105Z,11.30
2022-12-26T09:29:28.796Z,11.50
2022-12-26T09:32:16.400Z,11.40
2022-12-26T09:35:05.193Z,11.60
2022-12-26T09:37:52.875Z,11.60
2022-12-26T09:40:59.080Z,11.80
2022-12-26T09:44:15.446Z,11.80
2022-12-26T09:47:38.062Z,11.70
2022-12-26T09:50:40.963Z,11.70
2022-12-26T09:53:44.231Z,12.00
2022-12-26T09:57:01.918Z,11.80
2022-12-26T10:00:01.555Z,12.10
2022-12-26T10:03:00.786Z,12.00
2022-12-26T10:06:24.224Z,12.10
2022-12-26T10:09:39.536Z,12.20
2022-12-26T10:12:53.971Z,12.10
2022-12-26T10:15:47.021Z,12.10
2022-12-26T10:19:03.226Z,12.20
2022-12-26T10:22:15.821Z,12.50
2022-12-26T10:25:16.473Z,12.60
2022-12-26T10:28:09.021Z,12.90
2022-12-26T10:31:01.840Z,12.90
2022-12-26T10:34:44.554Z,12.70
2022-12-26T10:37:53.793Z,12.40
2022-12-26T10:40:47.180Z,12.90
2022-12-26T10:43:35.941Z,12.30
2022-12-26T10:46:56.178Z,12.60
2022-12-26T10:49:47.583Z,12.90
2022-12-26T10:52:44.120Z,13.00
2022-12-26T10:55:35.480Z,12.80
2022-12-26T10:58:33.924Z,12.80
2022-12-26T11:01:47.760Z,12.90
2022-12-26T11:05:10.459Z,12.80
2022-12-26T11:08:27.378Z,13.10
2022-12-26T11:11:46.267Z,13.10
2022-12-26T11:14:44.752Z,13.20
2022-12-26T11:17:40.585Z,13.30
2022-12-26T11:20:31.457Z,13.20
2022-12-26T11:23:34.184Z,13.10
2022-12-26T11:26:31.091Z,13.30
2022-12-26T11:29:24.553Z,13.30
2022-12-26T11:32:20.500Z,13.30
2022-12-26T11:35:20.406Z,13.20
2022-12-26T11:38:39.091Z,13.50
2022-12-26T11:41:41.797Z,13.30
2022-12-26T11:44:34.896Z,13.30
2022-12-26T11:47:28.450Z,13.30
2022-12-26T11:50:21.751Z,12.80
2022-12-26T11:53:18.940Z,13.00
2022-12-26T11:56:09.008Z,13.30
2022-12-26T11:59:19.176Z,13.10
2022-12-26T12:02:32.726Z,13.00
2022-12-26T12:05:31.976Z,12.90
2022-12-26T12:08:37.734Z,13.40
2022-12-26T12:11:54.713Z,13.50
2022-12-26T12:15:24.265Z,13.20
2022-12-26T12:18:45.702Z,13.50
2022-12-26T12:22:13.307Z,13.40
2022-12-26T12:25:40.236Z,13.10
2022-12-26T12:28:49.568Z,12.90
2022-12-26T12:32:02.737Z,12.50
2022-12-26T12:35:20.556Z,12.60
2022-12-26T12:38:50.259Z,13.00
2022-12-26T12:42:31.157Z,13.30
2022-12-26T12:45:32.625Z,13.50
2022-12-26T12:48:54.992Z,13.60
2022-12-26T12:52:13.454Z,13.50
2022-12-26T12:55:28.727Z,13.50
2022-12-26T12:58:46.215Z,13.20
2022-12-26T13:01:45.066Z,13.10
2022-12-26T13:04:45.872Z,13.20
2022-12-26T13:07:47.378Z,13.30
2022-12-26T13:10:51.979Z,13.60
2022-12-26T13:14:01.748Z,13.80
2022-12-26T13:17:16.154Z,13.90
2022-12-26T13:20:25.187Z,13.90
2022-12-26T13:23:58.948Z,13.80
2022-12-26T13:27:05.316Z,14.00
2022-12-26T13:29:53.959Z,13.90
2022-12-26T13:32:44.879Z,14.00
2022-12-26T13:36:07.001Z,14.00
2022-12-26T13:39:01.572Z,14.10
2022-12-26T13:42:19.721Z,13.90
2022-12-26T13:45:37.687Z,14.10
2022-12-26T13:48:29.694Z,13.90
2022-12-26T13:51:50.420Z,14.00
2022-12-26T13:54:48.314Z,14.20
2022-12-26T13:57:45.964Z,14.00
2022-12-26T14:00:48.352Z,14.10
2022-12-26T14:03:55.665Z,14.20
2022-12-26T14:07:29.823Z,14.10
2022-12-26T14:10:49.025Z,13.80
2022-12-26T14:13:55.167Z,13.90
2022-12-26T14:17:10.304Z,14.00
2022-12-26T14:20:08.398Z,13.90
2022-12-26T14:23:46.548Z,13.90
2022-12-26T14:26:52.066Z,13.80
2022-12-26T14:29:42.692Z,13.90
2022-12-26T14:33:30.378Z,13.80
2022-12-26T14:36:50.168Z,13.80
2022-12-26T14:40:27.516Z,13.70
2022-12-26T14:43:17.948Z,13.70
2022-12-26T14:46:30.543Z,13.60
2022-12-26T14:49:40.877Z,13.60
2022-12-26T14:52:40.751Z,13.50
2022-12-26T14:55:56.399Z,13.30
2022-12-26T14:58:53.000Z,13.40
2022-12-26T15:01:50.403Z,13.40
2022-12-26T15:04:44.040Z,13.40
2022-12-26T15:07:46.911Z,13.50
2022-12-26T15:11:08.145Z,13.30
2022-12-26T15:14:34.125Z,13.30
2022-12-26T15:17:53.306Z,13.40
2022-12-26T15:21:22.229Z,13.50
2022-12-26T15:25:20.798Z,13.60
2022-12-26T15:28:23.103Z,13.60
2022-12-26T15:31:38.075Z,13.80
2022-12-26T15:35:01.767Z,13.90
2022-12-26T15:38:19.255Z,13.90
2022-12-26T15:41:26.711Z,14.00
2022-12-26T15:44:37.800Z,13.80
2022-12-26T15:47:49.270Z,13.90
2022-12-26T15:54:49.100Z,14.20
2022-12-26T15:57:50.511Z,14.10
2022-12-26T16:00:53.309Z,14.00
2022-12-26T16:04:18.314Z,14.40
2022-12-26T16:08:02.541Z,14.30
2022-12-26T16:11:08.561Z,14.50
2022-12-26T16:14:05.345Z,14.80
2022-12-26T16:16:53.191Z,15.00
2022-12-26T16:19:44.325Z,15.00
2022-12-26T16:22:45.915Z,15.00
2022-12-26T16:25:37.844Z,15.10
2022-12-26T16:28:32.690Z,14.90
2022-12-26T16:31:25.700Z,15.30
2022-12-26T16:34:21.490Z,15.50
2022-12-26T16:37:18.465Z,15.40
2022-12-26T16:40:16.086Z,15.60
2022-12-26T16:43:22.143Z,15.80
2022-12-26T16:46:13.559Z,16.00
2022-12-26T16:49:02.397Z,15.90
2022-12-26T16:51:51.933Z,16.10
2022-12-26T16:54:42.525Z,16.30
2022-12-26T16:57:30.264Z,16.20
2022-12-26T17:00:21.351Z,16.40
2022-12-26T17:03:51.304Z,16.40
2022-12-26T17:07:05.287Z,16.30
2022-12-26T17:10:00.487Z,16.40
2022-12-26T17:12:48.954Z,16.60
2022-12-26T17:15:54.371Z,16.50
2022-12-26T17:18:48.073Z,16.70
2022-12-26T17:21:35.907Z,16.60
2022-12-26T17:24:27.689Z,16.50
2022-12-26T17:27:25.903Z,16.70
2022-12-26T17:30:32.411Z,16.50
2022-12-26T17:33:29.309Z,16.70
2022-12-26T17:39:27.727Z,16.50
2022-12-26T17:42:15.815Z,16.50
2022-12-26T17:45:03.540Z,16.50
2022-12-26T17:47:53.991Z,16.60
2022-12-26T17:50:45.855Z,16.80
2022-12-26T17:53:36.668Z,16.40
2022-12-26T17:56:27.339Z,16.70
2022-12-26T17:59:15.158Z,16.60
2022-12-26T18:02:02.753Z,16.70
2022-12-26T18:04:51.162Z,16.80
2022-12-26T18:07:39.370Z,16.80
2022-12-26T18:10:34.546Z,16.80
2022-12-26T18:13:22.136Z,16.90
2022-12-26T18:16:17.459Z,16.90
2022-12-26T18:19:05.153Z,16.80
2022-12-26T18:21:52.669Z,17.10
2022-12-26T18:24:40.531Z,17.10
2022-12-26T18:27:33.622Z,17.00
2022-12-26T18:30:24.926Z,17.00
2022-12-26T18:33:13.785Z,17.20
2022-12-26T18:36:07.239Z,16.70
2022-12-26T18:38:55.056Z,16.90
2022-12-26T18:41:43.523Z,17.10
2022-12-26T18:44:31.124Z,17.00
2022-12-26T18:47:21.920Z,16.80
2022-12-26T18:50:15.831Z,16.90
2022-12-26T18:53:03.647Z,17.00
2022-12-26T18:55:51.373Z,16.90
2022-12-26T18:58:38.921Z,16.70
2022-12-26T19:01:26.966Z,16.80
2022-12-26T19:04:17.922Z,16.90
2022-12-26T19:07:05.461Z,16.50
2022-12-26T19:09:55.832Z,17.00
2022-12-26T19:12:44.234Z,16.80
2022-12-26T19:15:36.538Z,16.90
2022-12-26T19:18:24.092Z,17.00
2022-12-26T19:21:16.543Z,17.00
2022-12-26T19:24:04.318Z,16.90
2022-12-26T19:26:51.861Z,17.00
2022-12-26T19:29:39.369Z,16.80
2022-12-26T19:32:27.016Z,17.00
2022-12-26T19:35:16.160Z,17.00
2022-12-26T19:38:04.029Z,17.00
2022-12-26T19:40:51.511Z,17.20
2022-12-26T19:43:40.797Z,17.00
2022-12-26T19:46:28.984Z,16.90
2022-12-26T19:49:16.570Z,16.70
2022-12-26T19:52:04.432Z,16.60
2022-12-26T19:54:52.190Z,16.50
2022-12-26T19:57:39.705Z,16.70
2022-12-26T20:00:27.243Z,16.90
2022-12-26T20:03:14.774Z,16.80
2022-12-26T20:06:20.053Z,16.80
2022-12-26T20:09:11.381Z,17.00
2022-12-26T20:11:58.941Z,17.00
2022-12-26T20:14:46.508Z,16.80
2022-12-26T20:17:34.245Z,16.70
2022-12-26T20:20:22.580Z,17.00
2022-12-26T20:23:10.113Z,16.70
2022-12-26T20:26:07.016Z,16.90
2022-12-26T20:29:01.900Z,16.90
2022-12-26T20:31:50.039Z,17.00
2022-12-26T20:34:37.839Z,17.10
2022-12-26T20:37:26.310Z,17.00
2022-12-26T20:40:13.902Z,17.00
2022-12-26T20:43:01.457Z,17.00
2022-12-26T20:45:48.997Z,16.80
2022-12-26T20:48:37.320Z,16.80
2022-12-26T20:51:36.579Z,16.70
2022-12-26T20:54:26.265Z,16.80
2022-12-26T20:57:13.734Z,16.80
2022-12-26T21:00:01.301Z,16.80
2022-12-26T21:02:49.017Z,16.90
2022-12-26T21:05:36.832Z,16.70
2022-12-26T21:08:24.375Z,16.80
2022-12-26T21:11:20.220Z,16.80
2022-12-26T21:14:15.527Z,16.80
2022-12-26T21:17:03.079Z,16.80
2022-12-26T21:19:50.630Z,16.90
2022-12-26T21:22:38.160Z,16.80
2022-12-26T21:25:25.779Z,16.90
2022-12-26T21:28:13.320Z,16.80
2022-12-26T21:31:02.038Z,16.80
2022-12-26T21:33:49.779Z,16.80
2022-12-26T21:36:39.132Z,16.80
2022-12-26T21:39:26.564Z,16.80
2022-12-26T21:42:14.458Z,16.80
2022-12-26T21:45:02.212Z,16.70
2022-12-26T21:47:49.796Z,16.80
2022-12-26T21:50:37.682Z,16.50
2022-12-26T21:53:25.263Z,16.80
2022-12-26T21:56:16.379Z,16.70
2022-12-26T21:59:22.559Z,16.80
2022-12-26T22:02:34.664Z,16.70
2022-12-26T22:05:27.002Z,16.70
2022-12-26T22:08:15.287Z,16.70
2022-12-26T22:11:21.249Z,16.50
2022-12-26T22:14:08.794Z,16.60
2022-12-26T22:16:57.817Z,16.70
2022-12-26T22:19:45.316Z,16.60
2022-12-26T22:22:32.914Z,16.70
2022-12-26T22:25:20.535Z,16.70
2022-12-26T22:28:08.111Z,16.60
2022-12-26T22:30:55.746Z,16.60
2022-12-26T22:33:43.284Z,16.60
2022-12-26T22:36:33.577Z,16.50
2022-12-26T22:39:21.068Z,16.60
2022-12-26T22:42:08.592Z,16.50
2022-12-26T22:44:57.470Z,16.30
2022-12-26T22:47:44.973Z,16.40
2022-12-26T22:50:32.550Z,16.30
2022-12-26T22:53:23.452Z,16.30
2022-12-26T22:56:12.412Z,16.30
2022-12-26T22:59:00.845Z,16.30
2022-12-26T23:01:48.530Z,16.30
2022-12-26T23:04:36.871Z,16.10
2022-12-26T23:07:25.318Z,16.20
2022-12-26T23:10:22.921Z,16.30
2022-12-26T23:13:15.769Z,16.30
2022-12-26T23:16:37.839Z,16.20
2022-12-26T23:20:01.910Z,16.30
2022-12-26T23:22:50.095Z,16.00
2022-12-26T23:25:39.036Z,16.00
2022-12-26T23:28:44.929Z,16.30
2022-12-26T23:31:32.528Z,16.10
2022-12-26T23:34:20.550Z,16.00
2022-12-26T23:37:08.135Z,16.10
2022-12-26T23:39:55.729Z,16.20
2022-12-26T23:42:43.810Z,16.20
2022-12-26T23:45:31.325Z,16.30
2022-12-26T23:48:18.952Z,16.10
2022-12-26T23:51:08.365Z,16.20
2022-12-26T23:53:56.063Z,16.30
2022-12-26T23:56:43.647Z,16.10
2022-12-26T23:59:31.302Z,16.50
